Time;durP1;ratioP1;P1;durP2;ratioP2;P2;SDS_P1;SDS_P2;PMS_P1;PMS_P2;Temp;Humidity;BMP_temperature;BMP_pressure;BME280_temperature;BME280_humidity;BME280_pressure;Samples;Min_cycle;Max_cycle;Signal;HPM_P1;HPM_P2
2022/08/28 00:00:51;;;;;;;16.30;2.35;;;;;;;14.10;85.39;101086.50;6045832;28;20049;-65
2022/08/28 00:03:47;;;;;;;9.75;2.55;;;;;;;14.09;85.82;101084.81;6030916;28;20762;-63
2022/08/28 00:06:42;;;;;;;10.87;2.10;;;;;;;14.04;85.71;101081.81;6023528;28;20066;-63
2022/08/28 00:09:37;;;;;;;11.60;2.70;;;;;;;14.08;86.07;101099.16;6023456;28;20065;-65
2022/08/28 00:12:34;;;;;;;10.40;2.43;;;;;;;14.00;86.52;101085.78;6023002;28;20069;-64
2022/08/28 00:15:32;;;;;;;9.57;2.65;;;;;;;13.96;86.88;101084.44;6023717;28;20500;-63
2022/08/28 00:18:28;;;;;;;10.13;2.42;;;;;;;13.89;86.78;101087.91;6023771;28;20042;-63
2022/08/28 00:21:24;;;;;;;8.75;2.40;;;;;;;13.86;87.22;101086.34;6023122;28;20045;-65
2022/08/28 00:24:19;;;;;;;7.57;2.40;;;;;;;13.77;87.33;101083.81;6043318;28;20042;-64
2022/08/28 00:30:47;;;;;;;8.45;2.63;;;;;;;13.74;87.71;101084.97;6039151;28;20881;-64
2022/08/28 00:33:43;;;;;;;8.40;2.33;;;;;;;13.76;88.16;101098.97;6045431;28;20384;-66
2022/08/28 00:36:40;;;;;;;7.73;2.23;;;;;;;13.72;88.50;101097.63;6046965;28;20038;-65
2022/08/28 00:39:35;;;;;;;5.90;2.20;;;;;;;13.74;88.75;101100.97;6047088;28;20097;-63
2022/08/28 00:42:33;;;;;;;12.27;2.50;;;;;;;13.79;88.52;101101.31;6045705;28;20057;-66
2022/08/28 00:45:29;;;;;;;13.00;2.88;;;;;;;13.80;88.32;101103.00;6041550;28;20049;-65
2022/08/28 00:48:25;;;;;;;14.50;2.58;;;;;;;13.77;88.39;101100.66;6046816;28;20467;-65
2022/08/28 00:54:38;;;;;;;9.85;2.75;;;;;;;13.74;88.42;101092.97;6045629;28;20257;-62
2022/08/28 00:57:38;;;;;;;10.60;2.40;;;;;;;13.93;87.50;101095.41;6046503;28;20041;-64
2022/08/28 01:00:35;;;;;;;12.23;2.40;;;;;;;14.00;87.48;101099.09;6044973;28;20473;-63
2022/08/28 01:03:30;;;;;;;12.10;2.53;;;;;;;13.97;87.14;101095.94;6061630;28;20036;-62
2022/08/28 01:06:25;;;;;;;12.03;2.60;;;;;;;13.99;87.54;101099.28;6046487;28;20029;-64
2022/08/28 01:09:23;;;;;;;9.53;2.70;;;;;;;14.11;87.23;101092.66;6046394;28;20025;-64
2022/08/28 01:12:26;;;;;;;14.00;3.15;;;;;;;14.12;86.80;101094.34;6045082;28;20038;-66
2022/08/28 01:15:27;;;;;;;9.65;2.30;;;;;;;14.13;87.32;101101.34;6044855;28;20057;-65
2022/08/28 01:18:24;;;;;;;12.07;2.38;;;;;;;14.17;86.57;101086.69;6043847;28;20040;-62
2022/08/28 01:21:35;;;;;;;9.93;2.60;;;;;;;14.20;86.47;101087.22;6045513;28;20034;-63
2022/08/28 01:24:30;;;;;;;8.68;2.30;;;;;;;14.21;86.81;101096.88;6044584;28;20461;-62
2022/08/28 01:27:26;;;;;;;9.18;2.70;;;;;;;14.20;87.33;101089.88;6046226;28;20091;-63
2022/08/28 01:30:23;;;;;;;13.02;2.83;;;;;;;14.26;86.53;101091.91;6045486;28;20080;-63
2022/08/28 01:33:18;;;;;;;17.05;4.80;;;;;;;14.33;86.41;101092.13;6045758;28;20053;-65
2022/08/28 01:36:14;;;;;;;10.67;2.70;;;;;;;14.29;86.29;101091.56;6044714;28;20022;-63
2022/08/28 01:39:16;;;;;;;8.43;2.50;;;;;;;14.46;86.33;101107.69;6045120;28;20026;-63
2022/08/28 01:42:12;;;;;;;10.40;2.45;;;;;;;14.40;85.63;101095.00;6041922;28;20390;-65
2022/08/28 01:45:10;;;;;;;11.05;2.70;;;;;;;14.45;85.48;101103.34;6045645;28;20169;-64
2022/08/28 01:48:06;;;;;;;11.45;2.38;;;;;;;14.41;86.24;101110.00;6045686;28;20042;-63
2022/08/28 01:51:03;;;;;;;10.63;2.63;;;;;;;14.36;86.18;101120.31;6045223;28;20350;-64
2022/08/28 01:53:58;;;;;;;13.73;3.00;;;;;;;14.24;86.52;101109.91;6045651;28;20105;-65
2022/08/28 01:56:54;;;;;;;12.20;2.67;;;;;;;14.30;86.15;101119.09;6045911;28;20029;-64
2022/08/28 01:59:49;;;;;;;15.10;4.17;;;;;;;14.37;86.58;101114.00;6045579;28;20273;-63
2022/08/28 02:02:47;;;;;;;10.02;2.38;;;;;;;14.41;85.88;101110.00;6045105;28;20030;-64
2022/08/28 02:05:42;;;;;;;14.10;2.88;;;;;;;14.26;85.94;101105.25;6045496;28;20034;-66
2022/08/28 02:08:38;;;;;;;7.78;2.25;;;;;;;14.27;86.89;101112.25;6040381;28;20052;-63
2022/08/28 02:11:34;;;;;;;12.40;2.80;;;;;;;14.17;86.63;101113.38;6045035;28;20037;-64
2022/08/28 02:14:29;;;;;;;7.53;2.63;;;;;;;14.11;87.38;101106.84;6060542;28;20112;-65
2022/08/28 02:17:24;;;;;;;12.87;4.63;;;;;;;14.11;87.56;101111.31;6045350;28;20396;-63
2022/08/28 02:20:21;;;;;;;13.53;2.47;;;;;;;14.12;87.24;101110.34;6040218;28;20041;-66
2022/08/28 02:23:16;;;;;;;8.77;2.78;;;;;;;14.11;87.41;101109.50;6062181;28;20026;-66
2022/08/28 02:26:13;;;;;;;8.67;2.57;;;;;;;14.11;87.35;101112.16;6045827;28;20064;-62
2022/08/28 02:29:08;;;;;;;7.97;2.55;;;;;;;14.19;87.48;101106.03;6049472;28;20312;-65
2022/08/28 02:32:04;;;;;;;8.60;2.50;;;;;;;14.26;87.40;101113.25;6049070;28;20323;-66
2022/08/28 02:35:00;;;;;;;11.98;3.08;;;;;;;14.39;87.01;101101.31;6048633;28;20481;-66
2022/08/28 02:37:55;;;;;;;11.98;2.80;;;;;;;14.38;86.81;101103.16;6049222;28;20030;-66
2022/08/28 02:40:51;;;;;;;11.90;3.03;;;;;;;14.49;86.61;101112.69;6048610;28;20068;-65
2022/08/28 02:43:46;;;;;;;7.88;2.60;;;;;;;14.51;86.44;101116.88;6049392;28;20264;-66
2022/08/28 02:46:42;;;;;;;15.87;4.13;;;;;;;14.57;85.92;101115.38;6049579;28;20099;-65
2022/08/28 02:49:37;;;;;;;10.80;2.70;;;;;;;14.52;86.03;101117.72;6049216;28;20036;-66
2022/08/28 02:52:36;;;;;;;12.13;2.50;;;;;;;14.53;85.90;101108.72;6048381;28;20082;-65
2022/08/28 02:55:32;;;;;;;8.48;3.10;;;;;;;14.47;85.79;101106.69;6048718;28;20080;-67
2022/08/28 02:58:31;;;;;;;8.95;2.70;;;;;;;14.46;85.87;101108.50;6048886;28;20701;-66
2022/08/28 03:01:26;;;;;;;10.13;2.55;;;;;;;14.48;85.11;101100.38;6048321;28;20040;-64
2022/08/28 03:04:22;;;;;;;10.43;2.33;;;;;;;14.51;85.35;101111.53;6035309;28;20034;-64
2022/08/28 03:07:18;;;;;;;12.60;2.60;;;;;;;14.48;84.91;101095.03;6047372;28;20268;-63
2022/08/28 03:10:14;;;;;;;15.85;2.58;;;;;;;14.61;84.60;101111.41;6040646;28;20385;-66
2022/08/28 03:13:10;;;;;;;13.45;2.90;;;;;;;14.49;84.65;101100.19;6048371;28;20037;-64
2022/08/28 03:16:05;;;;;;;6.85;2.60;;;;;;;14.46;85.62;101097.03;6049012;28;20458;-65
2022/08/28 03:19:00;;;;;;;14.05;2.92;;;;;;;14.48;85.01;101103.03;6047304;28;20060;-66
2022/08/28 03:21:56;;;;;;;15.95;3.55;;;;;;;14.48;85.25;101111.03;6048640;28;20083;-64
2022/08/28 03:24:51;;;;;;;10.67;2.77;;;;;;;14.44;84.58;101112.34;6045390;28;20069;-64
2022/08/28 03:27:47;;;;;;;7.83;2.43;;;;;;;14.47;85.14;101128.03;6038259;28;20029;-65
2022/08/28 03:30:42;;;;;;;9.07;2.53;;;;;;;14.37;85.31;101120.16;6047218;28;20441;-63
2022/08/28 03:33:37;;;;;;;9.13;3.03;;;;;;;14.29;85.16;101123.59;6048091;28;20050;-64
2022/08/28 03:36:33;;;;;;;9.03;2.73;;;;;;;14.21;85.89;101123.53;6048266;28;20032;-63
2022/08/28 03:39:28;;;;;;;13.23;3.38;;;;;;;14.22;86.32;101133.22;6047883;28;20272;-63
2022/08/28 03:42:23;;;;;;;8.50;2.83;;;;;;;14.26;86.41;101137.28;6047083;28;20038;-63
2022/08/28 03:45:19;;;;;;;10.97;2.57;;;;;;;14.18;85.73;101118.56;6047807;28;20030;-65
2022/08/28 03:48:14;;;;;;;9.65;2.38;;;;;;;14.28;86.07;101131.75;6047557;28;20040;-63
2022/08/28 03:51:16;;;;;;;9.20;2.67;;;;;;;14.15;85.83;101110.88;6047552;28;20044;-65
2022/08/28 03:54:11;;;;;;;8.90;2.50;;;;;;;14.22;86.44;101132.38;6047947;28;20037;-62
2022/08/28 03:57:06;;;;;;;8.40;2.50;;;;;;;14.27;86.12;101135.41;6047754;28;20038;-63
2022/08/28 04:00:06;;;;;;;10.77;2.47;;;;;;;14.11;86.13;101120.16;6039931;28;20808;-63
2022/08/28 04:03:01;;;;;;;6.07;2.05;;;;;;;14.15;86.67;101131.38;6047502;28;20052;-63
2022/08/28 04:05:56;;;;;;;6.83;2.40;;;;;;;14.08;86.45;101127.63;6047430;28;20034;-63
2022/08/28 04:08:51;;;;;;;8.57;2.60;;;;;;;14.09;86.96;101132.00;6039864;28;20463;-66
2022/08/28 04:11:47;;;;;;;11.00;2.77;;;;;;;14.11;86.65;101146.00;6046619;28;20378;-64
2022/08/28 04:14:42;;;;;;;12.35;2.90;;;;;;;14.10;86.67;101139.84;6047437;28;20068;-63
2022/08/28 04:17:39;;;;;;;10.87;2.87;;;;;;;14.36;86.36;101145.16;6047240;28;20052;-63
2022/08/28 04:20:35;;;;;;;9.75;2.42;;;;;;;14.26;85.77;101136.44;6047044;28;20269;-66
2022/08/28 04:23:31;;;;;;;8.85;2.13;;;;;;;14.27;85.88;101138.91;6047121;28;20171;-65
2022/08/28 04:26:26;;;;;;;11.67;2.33;;;;;;;14.31;85.76;101134.13;6046257;28;20120;-66
2022/08/28 04:29:22;;;;;;;10.05;2.45;;;;;;;14.09;86.50;101111.50;6047010;28;20057;-63
2022/08/28 04:32:17;;;;;;;11.10;2.83;;;;;;;14.30;86.57;101151.09;6046156;28;20387;-64
2022/08/28 04:35:13;;;;;;;12.30;2.60;;;;;;;14.30;86.09;101146.59;6042199;28;20030;-64
2022/08/28 04:38:08;;;;;;;8.45;2.35;;;;;;;14.29;85.99;101136.91;6046487;28;20025;-66
2022/08/28 04:41:05;;;;;;;10.10;2.60;;;;;;;14.32;86.58;101133.97;6046302;28;20096;-63
2022/08/28 04:44:00;;;;;;;9.52;2.80;;;;;;;14.36;86.28;101147.00;6046872;28;20081;-66
2022/08/28 04:46:55;;;;;;;10.93;2.60;;;;;;;14.25;86.36;101143.59;6046038;28;20457;-63
2022/08/28 04:49:51;;;;;;;10.63;2.20;;;;;;;14.22;86.01;101149.25;6046432;28;20033;-64
2022/08/28 04:52:46;;;;;;;7.60;2.30;;;;;;;14.28;86.69;101159.28;6045875;28;20061;-64
2022/08/28 04:55:44;;;;;;;7.43;1.83;;;;;;;14.22;86.02;101148.41;6045758;28;20528;-62
2022/08/28 04:58:41;;;;;;;14.38;3.47;;;;;;;14.20;86.52;101145.91;6046375;28;20037;-67
2022/08/28 05:01:39;;;;;;;7.18;2.08;;;;;;;14.22;86.33;101143.06;6045463;28;20033;-63
2022/08/28 05:04:34;;;;;;;8.57;2.15;;;;;;;14.32;86.23;101148.31;6046350;28;20030;-64
2022/08/28 05:07:29;;;;;;;15.23;3.73;;;;;;;14.37;85.63;101146.00;6046263;28;20073;-63
2022/08/28 05:10:25;;;;;;;8.30;2.70;;;;;;;14.46;85.84;101155.72;6045737;28;20653;-65
2022/08/28 05:13:22;;;;;;;8.98;2.85;;;;;;;14.50;85.60;101162.41;6046246;28;20112;-66
2022/08/28 05:16:18;;;;;;;11.18;2.53;;;;;;;14.49;85.30;101150.91;6045882;28;20424;-65
2022/08/28 05:19:14;;;;;;;11.20;2.22;;;;;;;14.65;85.08;101150.94;6045974;28;20529;-66
2022/08/28 05:22:10;;;;;;;6.93;2.28;;;;;;;14.75;84.37;101172.19;6043822;28;20029;-64
2022/08/28 05:25:05;;;;;;;9.07;2.67;;;;;;;14.76;84.17;101160.50;6045968;28;20038;-64
2022/08/28 05:28:01;;;;;;;8.80;2.25;;;;;;;14.91;83.96;101169.56;6045871;28;20664;-66
2022/08/28 05:31:07;;;;;;;11.68;2.35;;;;;;;14.78;83.95;101150.50;6044111;28;20038;-64
2022/08/28 05:34:03;;;;;;;7.78;2.22;;;;;;;15.05;83.49;101165.44;6033737;28;20424;-65
2022/08/28 05:36:58;;;;;;;10.15;2.42;;;;;;;15.35;82.14;101160.31;6044965;28;20034;-64
2022/08/28 05:39:54;;;;;;;10.80;2.60;;;;;;;15.48;81.40;101171.38;6040785;28;20033;-63
2022/08/28 05:42:50;;;;;;;10.57;2.90;;;;;;;15.54;80.21;101163.69;6041309;28;20129;-64
2022/08/28 05:45:56;;;;;;;5.85;1.98;;;;;;;15.51;79.87;101170.19;6045795;28;20084;-63
2022/08/28 05:48:54;;;;;;;6.28;2.35;;;;;;;15.46;79.93;101167.19;6039163;28;20465;-65
2022/08/28 05:51:49;;;;;;;9.48;2.15;;;;;;;15.46;80.06;101161.84;6043723;28;20429;-67
2022/08/28 05:54:44;;;;;;;10.45;1.90;;;;;;;15.67;79.70;101172.88;6045745;28;20026;-64
2022/08/28 05:57:40;;;;;;;8.50;2.13;;;;;;;15.68;79.98;101160.34;6046774;28;20038;-63
2022/08/28 06:00:35;;;;;;;9.20;2.33;;;;;;;15.71;79.54;101178.72;6049845;28;20381;-66
2022/08/28 06:03:31;;;;;;;10.20;2.67;;;;;;;15.70;78.41;101166.34;6050175;28;20096;-66
2022/08/28 06:06:28;;;;;;;12.52;2.40;;;;;;;15.78;78.80;101185.06;6065317;28;20500;-64
2022/08/28 06:09:26;;;;;;;10.70;2.47;;;;;;;15.87;78.39;101184.88;6041520;28;20026;-64
2022/08/28 06:12:21;;;;;;;12.63;2.20;;;;;;;15.84;77.60;101176.38;6045993;28;20034;-64
2022/08/28 06:15:16;;;;;;;11.27;2.83;;;;;;;15.63;78.91;101182.22;6050009;28;20428;-63
2022/08/28 06:18:12;;;;;;;10.77;2.40;;;;;;;15.68;78.87;101190.56;6049868;28;20061;-66
2022/08/28 06:21:08;;;;;;;13.45;2.35;;;;;;;15.83;78.71;101194.25;6049625;28;20553;-65
2022/08/28 06:24:03;;;;;;;9.70;2.37;;;;;;;15.91;78.17;101198.75;6049176;28;20076;-64
2022/08/28 06:26:59;;;;;;;7.53;2.28;;;;;;;15.98;78.09;101194.44;6031440;28;20102;-66
2022/08/28 06:29:54;;;;;;;12.53;2.50;;;;;;;16.03;77.58;101192.06;6049340;28;20037;-65
2022/08/28 06:32:50;;;;;;;12.77;2.47;;;;;;;16.04;77.90;101197.25;6048671;28;20308;-65
2022/08/28 06:35:48;;;;;;;8.18;2.50;;;;;;;16.22;77.21;101207.75;6049319;28;20038;-67
2022/08/28 06:38:45;;;;;;;10.23;2.10;;;;;;;16.16;76.94;101205.75;6042252;28;20041;-63
2022/08/28 06:41:42;;;;;;;4.43;1.90;;;;;;;16.19;76.88;101215.28;6045714;28;20038;-64
2022/08/28 06:44:38;;;;;;;9.10;2.35;;;;;;;16.25;76.58;101222.66;6045549;28;20112;-65
2022/08/28 06:47:33;;;;;;;7.78;2.40;;;;;;;16.28;76.37;101222.31;6036655;28;20122;-65
2022/08/28 06:50:28;;;;;;;9.00;2.10;;;;;;;16.18;76.59;101211.78;6041031;28;20033;-64
2022/08/28 06:53:27;;;;;;;5.30;2.13;;;;;;;16.06;77.18;101229.19;6044014;28;20030;-63
2022/08/28 06:56:23;;;;;;;8.13;2.03;;;;;;;16.22;76.73;101231.00;6048799;28;20924;-66
2022/08/28 06:59:18;;;;;;;14.77;2.42;;;;;;;16.12;76.69;101223.16;6048941;28;20112;-66
2022/08/28 07:02:14;;;;;;;12.53;2.10;;;;;;;16.05;76.74;101222.16;6046663;28;20464;-63
2022/08/28 07:05:09;;;;;;;6.50;2.40;;;;;;;16.24;76.54;101231.66;6049087;28;20370;-65
2022/08/28 07:08:04;;;;;;;10.87;2.17;;;;;;;16.21;76.71;101240.03;6031196;28;20030;-62
2022/08/28 07:11:09;;;;;;;6.97;2.20;;;;;;;16.22;76.77;101234.53;6046356;28;20748;-66
2022/08/28 07:14:05;;;;;;;9.05;2.15;;;;;;;16.46;76.38;101230.94;6043724;28;20048;-63
2022/08/28 07:17:00;;;;;;;9.32;2.28;;;;;;;16.43;75.52;101237.50;6042558;28;20030;-63
2022/08/28 07:19:56;;;;;;;6.47;1.80;;;;;;;16.29;75.93;101240.84;6032375;28;20076;-63
2022/08/28 07:22:52;;;;;;;11.25;2.10;;;;;;;16.32;75.92;101240.53;6043856;28;20108;-66
2022/08/28 07:25:47;;;;;;;8.32;1.70;;;;;;;16.45;75.16;101251.53;6047558;28;20034;-65
2022/08/28 07:28:42;;;;;;;8.50;2.03;;;;;;;16.48;75.11;101253.03;6046656;28;20034;-64
2022/08/28 07:31:44;;;;;;;10.77;2.33;;;;;;;16.70;74.27;101243.47;6038546;28;20277;-63
2022/08/28 07:34:40;;;;;;;7.45;2.20;;;;;;;16.78;73.34;101240.75;6040782;28;20103;-65
2022/08/28 07:37:36;;;;;;;6.85;1.77;;;;;;;16.72;73.57;101233.41;6047205;28;20045;-65
2022/08/28 07:40:31;;;;;;;11.63;3.03;;;;;;;16.72;73.52;101241.44;6039471;28;20153;-63
2022/08/28 07:46:41;;;;;;;7.90;2.25;;;;;;;17.16;72.32;101239.91;6038509;28;20026;-64
2022/08/28 07:49:37;;;;;;;8.53;2.07;;;;;;;17.19;71.11;101228.84;6045284;28;20029;-65
2022/08/28 07:52:32;;;;;;;5.97;1.88;;;;;;;17.16;70.31;101230.03;6044069;28;20276;-65
2022/08/28 07:55:30;;;;;;;10.57;2.00;;;;;;;17.50;69.63;101247.59;6039167;28;20092;-65
2022/08/28 07:58:25;;;;;;;13.73;2.50;;;;;;;17.37;69.04;101241.94;6047462;28;20041;-65
2022/08/28 08:01:21;;;;;;;9.60;1.63;;;;;;;17.73;68.02;101248.44;6038445;28;20139;-63
2022/08/28 08:04:18;;;;;;;8.90;2.08;;;;;;;17.84;66.87;101240.81;6043098;28;20109;-64
2022/08/28 08:07:16;;;;;;;8.73;1.55;;;;;;;17.88;66.02;101245.84;6030901;28;20034;-66
2022/08/28 08:10:13;;;;;;;7.28;1.75;;;;;;;17.96;66.48;101248.44;6044521;28;20385;-65
2022/08/28 08:13:09;;;;;;;9.10;2.10;;;;;;;18.18;66.78;101245.72;6046469;28;20030;-65
2022/08/28 08:16:17;;;;;;;10.25;2.05;;;;;;;18.37;65.45;101239.81;6038119;28;20397;-63
2022/08/28 08:19:13;;;;;;;10.35;2.53;;;;;;;18.67;63.92;101243.38;6038947;28;20034;-64
2022/08/28 08:22:09;;;;;;;12.40;2.10;;;;;;;18.90;62.98;101254.88;6021936;28;20026;-62
2022/08/28 08:25:05;;;;;;;8.60;1.50;;;;;;;19.28;61.77;101257.41;6038778;28;20038;-66
2022/08/28 08:28:02;;;;;;;6.07;1.92;;;;;;;19.11;61.70;101237.13;6024573;28;20258;-63
2022/08/28 08:31:04;;;;;;;5.97;1.90;;;;;;;19.19;60.22;101239.69;6022152;28;20540;-63
2022/08/28 08:34:02;;;;;;;9.00;2.15;;;;;;;18.97;60.62;101234.28;6022605;28;20042;-65
2022/08/28 08:36:57;;;;;;;7.25;2.45;;;;;;;19.03;60.62;101238.91;6040186;28;20030;-65
2022/08/28 08:39:53;;;;;;;7.47;1.80;;;;;;;18.88;61.48;101230.03;6036534;28;20022;-64
2022/08/28 08:42:55;;;;;;;7.32;1.70;;;;;;;18.63;61.45;101231.34;6037022;28;20026;-65
2022/08/28 08:45:51;;;;;;;11.90;2.58;;;;;;;18.62;61.25;101232.34;6039002;28;20721;-65
2022/08/28 08:48:46;;;;;;;8.05;2.03;;;;;;;18.73;61.03;101234.56;6046074;28;20030;-63
2022/08/28 08:51:46;;;;;;;4.80;1.50;;;;;;;19.00;58.78;101247.34;6045752;28;20453;-64
2022/08/28 08:54:42;;;;;;;;;;;;;;;19.37;57.54;101249.03;6046329;28;20330;-65
2022/08/28 08:57:38;;;;;;;5.45;2.00;;;;;;;20.18;55.67;101234.28;6043168;28;20536;-65
2022/08/28 09:00:38;;;;;;;9.05;2.38;;;;;;;19.70;56.52;101230.59;6030507;28;20164;-66
2022/08/28 09:03:43;;;;;;;6.50;1.98;;;;;;;20.16;56.30;101242.56;6044281;28;20053;-66
2022/08/28 09:06:52;;;;;;;8.90;1.85;;;;;;;20.08;55.24;101241.88;6045920;28;20473;-65
2022/08/28 09:09:51;;;;;;;7.25;1.45;;;;;;;20.47;55.17;101246.75;6045741;28;20110;-64
2022/08/28 09:13:08;;;;;;;6.85;1.83;;;;;;;20.01;55.65;101244.50;6044659;28;20421;-65
2022/08/28 09:16:04;;;;;;;6.43;1.65;;;;;;;20.20;55.30;101240.31;6037361;28;20053;-65
2022/08/28 09:19:00;;;;;;;10.18;2.10;;;;;;;20.56;54.73;101253.66;6044433;28;20393;-66
2022/08/28 09:21:56;;;;;;;6.78;1.67;;;;;;;20.70;54.28;101241.94;6043903;28;20042;-65
2022/08/28 09:24:51;;;;;;;10.40;1.95;;;;;;;20.18;55.36;101239.69;6045599;28;20030;-65
2022/08/28 09:27:51;;;;;;;5.78;1.90;;;;;;;19.92;55.70;101234.91;6032013;28;20517;-65
2022/08/28 09:31:02;;;;;;;8.00;1.60;;;;;;;20.49;54.74;101242.00;6045332;28;20034;-63
2022/08/28 09:34:18;;;;;;;7.28;1.77;;;;;;;20.21;55.99;101250.06;6034460;28;20116;-64
2022/08/28 09:37:24;;;;;;;6.45;2.00;;;;;;;20.03;55.26;101237.06;6045962;28;20110;-65
2022/08/28 09:43:45;;;;;;;12.50;1.95;;;;;;;20.79;52.14;101232.63;6048046;28;20805;-64
2022/08/28 09:46:46;;;;;;;7.68;1.63;;;;;;;21.16;51.23;101234.91;6045233;28;20120;-66
2022/08/28 09:49:41;;;;;;;7.57;2.05;;;;;;;21.01;51.30;101227.97;6060858;28;20479;-67
2022/08/28 09:52:36;;;;;;;6.60;1.50;;;;;;;21.54;50.79;101237.09;6044843;28;20057;-65
2022/08/28 09:55:45;;;;;;;7.67;2.03;;;;;;;21.45;50.42;101227.50;6054530;28;20030;-64
2022/08/28 09:58:44;;;;;;;7.53;1.70;;;;;;;21.40;49.22;101228.13;6041855;28;20057;-63
2022/08/28 10:01:48;;;;;;;4.80;1.40;;;;;;;21.88;48.04;101237.78;6043852;28;20034;-64
2022/08/28 10:05:00;;;;;;;5.25;1.42;;;;;;;21.89;48.07;101225.09;6044285;28;20026;-63
2022/08/28 10:08:06;;;;;;;8.75;1.73;;;;;;;22.13;48.57;101232.59;6052875;28;20112;-65
2022/08/28 10:11:21;;;;;;;7.47;1.55;;;;;;;22.13;48.03;101242.56;6042815;28;20042;-65
2022/08/28 10:14:54;;;;;;;13.88;2.25;;;;;;;22.18;47.94;101240.91;6042041;28;20474;-65
2022/08/28 10:18:22;;;;;;;5.20;1.70;;;;;;;22.64;47.46;101246.25;6042509;28;20083;-66
2022/08/28 10:21:27;;;;;;;6.68;1.70;;;;;;;22.69;46.13;101232.13;6044397;28;20285;-65
2022/08/28 10:24:48;;;;;;;8.57;1.63;;;;;;;22.95;45.76;101240.13;6040639;28;20133;-66
2022/08/28 10:27:59;;;;;;;5.22;1.80;;;;;;;22.25;45.54;101230.94;6034163;28;20118;-67
2022/08/28 10:31:03;;;;;;;7.15;1.42;;;;;;;22.34;45.48;101236.94;6042283;28;20490;-66
2022/08/28 10:34:30;;;;;;;9.50;2.20;;;;;;;22.53;44.90;101242.31;6041060;28;20061;-64
2022/08/28 10:38:02;;;;;;;4.78;1.73;;;;;;;22.71;44.15;101241.69;6028946;28;20379;-65
2022/08/28 10:41:19;;;;;;;4.68;1.60;;;;;;;23.05;44.46;101229.69;6053407;28;20022;-65
2022/08/28 10:44:20;;;;;;;8.52;1.85;;;;;;;23.02;44.07;101228.25;6043158;28;20068;-66
2022/08/28 10:47:16;;;;;;;6.63;1.67;;;;;;;23.03;44.18;101231.78;6060699;28;20443;-65
2022/08/28 10:50:25;;;;;;;10.05;1.50;;;;;;;22.97;44.09;101229.94;6049240;28;20114;-66
2022/08/28 10:53:25;;;;;;;6.32;1.45;;;;;;;23.01;44.12;101223.06;6055323;28;20038;-65
2022/08/28 10:56:29;;;;;;;8.70;1.73;;;;;;;22.71;44.83;101230.03;6035910;28;20026;-65
2022/08/28 10:59:28;;;;;;;7.13;1.88;;;;;;;;;;6042340;28;20034;-65
2022/08/28 11:02:25;;;;;;;5.93;1.67;;;;;;;22.99;43.83;101223.25;6041542;28;20042;-66
2022/08/28 11:05:22;;;;;;;5.55;1.65;;;;;;;22.84;43.22;101227.28;6043706;28;20440;-65
2022/08/28 11:08:37;;;;;;;6.03;1.50;;;;;;;22.81;43.73;101222.28;6058272;28;20037;-66
2022/08/28 11:11:47;;;;;;;5.35;1.65;;;;;;;23.10;43.50;101224.47;6053899;28;20038;-65
2022/08/28 11:14:45;;;;;;;6.28;1.77;;;;;;;23.32;42.59;101219.59;6049595;28;20042;-65
2022/08/28 11:17:40;;;;;;;8.68;1.73;;;;;;;22.97;44.04;101221.81;6061022;28;20096;-64
2022/08/28 11:20:36;;;;;;;7.73;1.97;;;;;;;23.21;43.56;101221.06;6041971;28;20038;-64
2022/08/28 11:23:57;;;;;;;10.13;2.35;;;;;;;23.36;43.35;101220.78;6039265;28;20280;-64
2022/08/28 11:27:16;;;;;;;5.70;1.58;;;;;;;23.29;42.72;101212.69;6040318;28;20118;-65
2022/08/28 11:30:14;;;;;;;8.00;2.00;;;;;;;23.86;41.67;101236.09;6043633;28;20391;-64
2022/08/28 11:33:42;;;;;;;7.15;1.50;;;;;;;23.50;41.43;101231.38;6044187;28;20053;-65
2022/08/28 11:36:42;;;;;;;4.72;1.65;;;;;;;23.38;41.47;101224.97;6043346;28;20058;-64
2022/08/28 11:39:37;;;;;;;9.55;1.60;;;;;;;23.44;41.46;101210.56;6044969;28;20030;-64
2022/08/28 11:42:36;;;;;;;6.43;2.17;;;;;;;23.62;41.67;101218.78;6031256;28;20034;-64
2022/08/28 11:45:49;;;;;;;8.00;1.90;;;;;;;23.45;41.91;101223.06;6046049;28;20113;-64
2022/08/28 11:48:48;;;;;;;5.65;1.55;;;;;;;23.18;42.79;101232.34;6036000;28;20091;-65
2022/08/28 11:52:08;;;;;;;7.70;1.80;;;;;;;23.31;42.84;101218.75;6049980;28;20073;-65
2022/08/28 11:55:21;;;;;;;6.78;1.60;;;;;;;23.80;42.61;101222.63;6038671;28;20034;-64
2022/08/28 11:58:56;;;;;;;7.07;1.60;;;;;;;23.50;41.54;101220.53;6063001;28;20037;-65
2022/08/28 12:01:51;;;;;;;5.68;1.45;;;;;;;23.53;40.67;101228.22;6044608;28;20068;-63
2022/08/28 12:04:47;;;;;;;4.97;1.70;;;;;;;23.29;41.58;101214.59;6037916;28;20030;-65
2022/08/28 12:07:45;;;;;;;6.60;1.47;;;;;;;23.61;40.71;101227.13;6037903;28;20348;-63
2022/08/28 12:10:46;;;;;;;4.78;1.70;;;;;;;23.69;41.56;101235.00;6045613;28;20045;-63
2022/08/28 12:13:47;;;;;;;6.43;1.70;;;;;;;23.40;41.74;101224.78;6046748;28;20157;-64
2022/08/28 12:16:57;;;;;;;6.28;1.60;;;;;;;23.68;40.09;101217.91;6042784;28;20440;-64
2022/08/28 12:19:58;;;;;;;6.38;1.45;;;;;;;23.75;39.60;101204.31;6046316;28;20105;-64
2022/08/28 12:22:56;;;;;;;6.13;1.60;;;;;;;23.81;38.84;101206.13;6034397;28;20116;-64
2022/08/28 12:26:05;;;;;;;4.70;1.58;;;;;;;24.06;39.83;101201.53;6046411;28;20466;-65
2022/08/28 12:29:17;;;;;;;8.40;1.92;;;;;;;23.60;40.22;101207.34;6032912;28;20045;-64
2022/08/28 12:32:33;;;;;;;5.40;1.50;;;;;;;23.57;39.75;101201.50;6055235;28;20030;-64
2022/08/28 12:35:28;;;;;;;6.43;1.92;;;;;;;23.79;38.98;101197.41;6046074;28;20447;-65
2022/08/28 12:38:25;;;;;;;5.55;1.60;;;;;;;23.97;39.59;101202.06;6042843;28;20037;-64
2022/08/28 12:41:23;;;;;;;5.85;1.38;;;;;;;24.25;38.59;101207.84;6043845;28;20033;-65
2022/08/28 12:44:28;;;;;;;4.78;1.48;;;;;;;24.34;38.12;101198.38;6042176;28;20045;-64
2022/08/28 12:47:24;;;;;;;6.47;2.30;;;;;;;24.40;38.15;101199.38;6043176;28;20116;-63
2022/08/28 12:50:35;;;;;;;4.30;1.52;;;;;;;24.42;37.97;101200.81;6049804;28;20036;-66
2022/08/28 12:53:46;;;;;;;7.47;1.80;;;;;;;24.43;38.16;101198.94;6046225;28;20430;-64
2022/08/28 12:56:41;;;;;;;5.97;1.63;;;;;;;24.26;37.10;101182.41;6044995;28;20037;-65
2022/08/28 12:59:41;;;;;;;4.43;1.37;;;;;;;24.28;37.18;101199.28;6044198;28;20342;-65
2022/08/28 13:02:40;;;;;;;5.93;1.67;;;;;;;24.09;38.18;101181.31;6045320;28;20061;-66
2022/08/28 13:05:38;;;;;;;8.55;1.80;;;;;;;24.27;37.25;101189.47;6045738;28;20061;-66
2022/08/28 13:08:35;;;;;;;7.53;1.63;;;;;;;24.09;37.67;101186.75;6044858;28;20038;-64
2022/08/28 13:11:36;;;;;;;3.75;1.67;;;;;;;24.36;36.84;101185.44;6044351;28;20032;-64
2022/08/28 13:14:43;;;;;;;5.60;1.55;;;;;;;24.29;36.85;101184.69;6046130;28;20038;-65
2022/08/28 13:17:43;;;;;;;4.68;1.42;;;;;;;24.55;37.20;101192.53;6032879;28;20033;-64
2022/08/28 13:20:38;;;;;;;5.60;1.48;;;;;;;24.49;37.28;101181.72;6045233;28;20077;-63
2022/08/28 13:23:34;;;;;;;5.63;1.93;;;;;;;24.44;37.86;101173.44;6043956;28;20093;-65
2022/08/28 13:26:35;;;;;;;5.85;2.00;;;;;;;24.45;37.45;101185.97;6044308;28;20288;-64
2022/08/28 13:29:39;;;;;;;3.38;1.30;;;;;;;24.40;37.44;101175.81;6043000;28;20034;-64
2022/08/28 13:32:37;;;;;;;5.78;1.38;;;;;;;24.50;37.54;101186.94;6033261;28;20034;-65
2022/08/28 13:35:38;;;;;;;6.30;1.52;;;;;;;24.70;37.66;101178.59;6031349;28;20049;-64
2022/08/28 13:38:34;;;;;;;8.25;1.63;;;;;;;24.94;36.95;101168.72;6043263;28;20087;-65
2022/08/28 13:41:29;;;;;;;8.60;1.83;;;;;;;24.72;36.70;101171.03;6044383;28;20033;-65
2022/08/28 13:44:30;;;;;;;8.20;1.93;;;;;;;24.28;37.50;101169.44;6041973;28;20037;-64
2022/08/28 13:47:26;;;;;;;6.03;1.80;;;;;;;24.01;37.79;101168.03;6039175;28;20022;-63
2022/08/28 13:50:22;;;;;;;14.48;1.77;;;;;;;24.27;37.23;101168.63;6044794;28;20485;-65
2022/08/28 13:53:19;;;;;;;3.58;1.40;;;;;;;24.57;35.74;101167.91;6040734;28;20485;-66
2022/08/28 13:56:14;;;;;;;6.18;1.83;;;;;;;24.29;36.29;101165.69;6038235;28;20033;-65
2022/08/28 13:59:09;;;;;;;5.27;1.40;;;;;;;24.26;36.84;101164.28;6040684;28;20699;-65
2022/08/28 14:05:23;;;;;;;4.90;1.23;;;;;;;24.43;36.08;101156.38;6056382;28;20042;-64
2022/08/28 14:08:18;;;;;;;5.20;1.80;;;;;;;24.48;36.87;101171.97;6035526;28;20490;-64